Time;durP1;ratioP1;P1;durP2;ratioP2;P2;SDS_P1;SDS_P2;PMS_P1;PMS_P2;Temp;Humidity;BMP_temperature;BMP_pressure;BME280_temperature;BME280_humidity;BME280_pressure;Samples;Min_cycle;Max_cycle;Signal;HPM_P1;HPM_P2
2022/09/30 00:01:32;;;;;;;1.33;0.30;;;16.70;99.90;;;;;;5073517;28;20028;-60
2022/09/30 00:03:58;;;;;;;1.10;0.30;;;16.60;99.90;;;;;;5073530;28;20463;-63
2022/09/30 00:06:26;;;;;;;0.22;0.20;;;16.70;99.90;;;;;;5073875;28;20020;-60
2022/09/30 00:08:52;;;;;;;1.40;0.20;;;16.70;99.90;;;;;;5073482;28;20127;-62
2022/09/30 00:11:24;;;;;;;0.88;0.20;;;16.80;99.90;;;;;;5073231;28;20033;-62
2022/09/30 00:13:52;;;;;;;1.35;0.20;;;16.90;99.90;;;;;;5073729;28;20107;-62
2022/09/30 00:16:20;;;;;;;0.25;0.20;;;16.80;99.90;;;;;;5073291;28;20459;-61
2022/09/30 00:18:46;;;;;;;0.68;0.20;;;17.00;99.90;;;;;;5073576;28;20035;-60
2022/09/30 00:21:14;;;;;;;0.40;0.20;;;17.00;99.90;;;;;;5073515;28;20028;-61
2022/09/30 00:23:41;;;;;;;0.20;0.13;;;17.10;99.90;;;;;;5073370;28;20024;-60
2022/09/30 00:26:12;;;;;;;1.73;0.25;;;17.10;99.90;;;;;;5073485;28;20158;-61
2022/09/30 00:28:39;;;;;;;0.50;0.20;;;17.10;99.90;;;;;;5073319;28;20021;-62
2022/09/30 00:31:08;;;;;;;0.68;0.20;;;17.30;99.90;;;;;;5072329;28;20478;-63
2022/09/30 00:33:34;;;;;;;0.43;0.20;;;17.20;99.90;;;;;;5073556;28;20360;-62
2022/09/30 00:36:01;;;;;;;0.40;0.20;;;17.10;99.90;;;;;;5073550;28;20027;-61
2022/09/30 00:38:27;;;;;;;1.05;0.20;;;17.00;99.90;;;;;;5073109;28;20025;-60
2022/09/30 00:40:55;;;;;;;0.47;0.20;;;16.90;99.90;;;;;;5073356;28;20052;-60
2022/09/30 00:43:50;;;;;;;0.73;0.30;;;16.90;99.90;;;;;;5073253;28;20025;-62
2022/09/30 00:46:34;;;;;;;1.73;0.40;;;17.00;99.90;;;;;;5073212;28;20028;-63
2022/09/30 00:49:06;;;;;;;0.75;0.30;;;17.00;99.90;;;;;;5073085;28;20017;-61
2022/09/30 00:51:37;;;;;;;0.20;0.20;;;17.00;99.90;;;;;;5073174;28;20158;-63
2022/09/30 00:54:09;;;;;;;0.68;0.30;;;16.80;99.90;;;;;;5073162;28;20017;-62
2022/09/30 00:56:45;;;;;;;1.30;0.40;;;16.80;99.90;;;;;;5073021;28;20096;-60
2022/09/30 00:59:17;;;;;;;0.90;0.50;;;16.70;99.90;;;;;;5072872;28;20013;-62
2022/09/30 01:01:43;;;;;;;0.80;0.60;;;16.60;99.90;;;;;;5073254;28;20032;-60
2022/09/30 01:04:19;;;;;;;1.23;0.65;;;16.60;99.90;;;;;;5073018;28;20017;-61
2022/09/30 01:06:45;;;;;;;1.95;0.73;;;16.80;99.90;;;;;;5073286;28;20100;-62
2022/09/30 01:09:11;;;;;;;0.80;0.40;;;16.80;99.90;;;;;;5072664;28;20059;-62
2022/09/30 01:11:37;;;;;;;1.75;0.50;;;16.80;99.90;;;;;;5072776;28;20033;-62
2022/09/30 01:14:24;;;;;;;1.38;0.40;;;16.80;99.90;;;;;;5072785;28;20360;-59
2022/09/30 01:17:19;;;;;;;0.70;0.40;;;16.60;99.90;;;;;;5072958;28;20051;-60
2022/09/30 01:20:16;;;;;;;0.52;0.22;;;16.60;99.90;;;;;;5072345;28;20120;-62
2022/09/30 01:23:08;;;;;;;1.65;0.40;;;16.50;99.90;;;;;;5072747;28;20475;-62
2022/09/30 01:25:51;;;;;;;0.30;0.20;;;16.50;99.90;;;;;;5073099;28;20445;-62
2022/09/30 01:28:23;;;;;;;0.45;0.20;;;16.60;99.90;;;;;;5072529;28;20032;-60
2022/09/30 01:31:09;;;;;;;0.55;0.20;;;16.70;99.90;;;;;;5072619;28;20029;-61
2022/09/30 01:34:08;;;;;;;0.15;0.10;;;16.80;99.90;;;;;;5072845;28;20162;-61
2022/09/30 01:36:55;;;;;;;0.20;0.20;;;17.00;99.90;;;;;;5072499;28;20021;-60
2022/09/30 01:39:59;;;;;;;0.68;0.20;;;17.00;99.90;;;;;;5072710;28;20024;-60
2022/09/30 01:42:35;;;;;;;0.20;0.20;;;17.10;99.90;;;;;;5075601;28;20498;-60
2022/09/30 01:45:09;;;;;;;0.30;0.17;;;17.00;99.90;;;;;;5076468;28;20063;-61
2022/09/30 01:47:57;;;;;;;1.40;0.32;;;16.80;99.90;;;;;;5076280;28;20017;-62
2022/09/30 01:50:46;;;;;;;0.20;0.20;;;16.70;99.90;;;;;;5076445;28;20031;-61
2022/09/30 01:53:18;;;;;;;2.63;0.75;;;16.70;99.90;;;;;;5076098;28;20029;-62
2022/09/30 01:55:51;;;;;;;0.50;0.30;;;16.80;99.90;;;;;;5076311;28;20020;-60
2022/09/30 01:58:31;;;;;;;0.60;0.20;;;16.70;99.90;;;;;;5076075;28;20019;-61
2022/09/30 02:01:01;;;;;;;0.52;0.20;;;16.70;99.90;;;;;;5076254;28;20031;-63
2022/09/30 02:03:30;;;;;;;0.47;0.30;;;16.60;99.90;;;;;;5075919;28;20082;-62
2022/09/30 02:06:08;;;;;;;0.60;0.28;;;16.60;99.90;;;;;;5075771;28;20548;-62
2022/09/30 02:08:40;;;;;;;1.85;0.60;;;16.40;99.90;;;;;;5075725;28;20028;-61
2022/09/30 02:11:12;;;;;;;0.77;0.30;;;16.40;99.90;;;;;;5075316;28;20036;-60
2022/09/30 02:13:55;;;;;;;1.83;0.50;;;16.30;99.90;;;;;;5075776;28;20104;-62
2022/09/30 02:16:38;;;;;;;0.80;0.40;;;16.20;99.90;;;;;;5075586;28;20012;-61
2022/09/30 02:19:10;;;;;;;0.70;0.40;;;16.20;99.90;;;;;;5075960;28;20040;-60
2022/09/30 02:21:40;;;;;;;1.88;0.50;;;16.20;99.90;;;;;;5075768;28;20037;-62
2022/09/30 02:24:12;;;;;;;0.70;0.40;;;16.30;99.90;;;;;;5075534;28;20025;-59
2022/09/30 02:26:41;;;;;;;0.52;0.30;;;16.40;99.90;;;;;;5075331;28;20028;-60
2022/09/30 02:29:17;;;;;;;0.55;0.20;;;16.60;99.90;;;;;;5075644;28;20037;-60
2022/09/30 02:31:45;;;;;;;0.25;0.20;;;16.80;99.90;;;;;;5075301;28;20028;-60
2022/09/30 02:34:17;;;;;;;0.22;0.20;;;16.90;99.90;;;;;;5075406;28;20027;-61
2022/09/30 02:36:46;;;;;;;0.25;0.25;;;17.00;99.90;;;;;;5075694;28;20024;-60
2022/09/30 02:39:58;;;;;;;0.63;0.30;;;17.20;99.90;;;;;;5075292;28;20016;-60
2022/09/30 02:42:27;;;;;;;0.68;0.20;;;17.40;99.90;;;;;;5074247;28;20033;-61
2022/09/30 02:45:00;;;;;;;0.10;0.10;;;17.40;99.90;;;;;;5075064;28;20475;-60
2022/09/30 02:47:54;;;;;;;0.10;0.10;;;17.50;99.90;;;;;;5075393;28;20036;-61
2022/09/30 02:50:25;;;;;;;0.40;0.22;;;17.50;99.90;;;;;;5075145;28;20033;-60
2022/09/30 02:53:13;;;;;;;0.30;0.20;;;17.60;99.90;;;;;;5074287;28;20115;-63
2022/09/30 02:55:54;;;;;;;1.27;0.38;;;17.60;99.90;;;;;;5075005;28;20094;-62
2022/09/30 02:58:24;;;;;;;0.82;0.20;;;17.60;99.90;;;;;;5075221;28;20371;-60
2022/09/30 03:00:50;;;;;;;0.30;0.30;;;17.50;99.90;;;;;;5074948;28;20036;-60
2022/09/30 03:03:19;;;;;;;0.47;0.40;;;17.50;99.90;;;;;;5074793;28;20490;-61
2022/09/30 03:05:45;;;;;;;0.70;0.70;;;17.50;99.90;;;;;;5074992;28;20100;-62
2022/09/30 03:08:11;;;;;;;2.10;2.00;;;17.50;99.90;;;;;;5075148;28;20112;-59
2022/09/30 03:10:37;;;;;;;2.25;1.90;;;17.50;99.90;;;;;;5074088;28;20044;-60
2022/09/30 03:13:28;;;;;;;1.48;1.35;;;17.50;99.90;;;;;;5074850;28;20056;-61
2022/09/30 03:16:10;;;;;;;1.52;1.00;;;17.40;99.90;;;;;;5074610;28;20029;-62
2022/09/30 03:18:54;;;;;;;1.40;1.30;;;17.40;99.90;;;;;;5074366;28;20108;-61
2022/09/30 03:21:36;;;;;;;1.15;0.77;;;17.40;99.90;;;;;;5074497;28;20033;-60
2022/09/30 03:24:14;;;;;;;0.93;0.70;;;17.30;99.90;;;;;;5074300;28;20099;-59
2022/09/30 03:26:54;;;;;;;1.30;0.80;;;17.40;99.90;;;;;;5074500;28;20351;-62
2022/09/30 03:29:46;;;;;;;0.82;0.77;;;17.40;99.90;;;;;;5074510;28;20017;-61
2022/09/30 03:32:17;;;;;;;0.55;0.50;;;17.00;99.90;;;;;;5073812;28;20072;-62
2022/09/30 03:35:00;;;;;;;1.85;0.60;;;17.00;99.90;;;;;;5074294;28;20025;-59
2022/09/30 03:37:42;;;;;;;0.63;0.50;;;17.10;99.90;;;;;;5073831;28;20021;-62
2022/09/30 03:40:23;;;;;;;2.15;0.90;;;17.20;99.90;;;;;;5074041;28;20454;-60
2022/09/30 03:42:58;;;;;;;4.55;1.10;;;17.20;99.90;;;;;;5073888;28;20074;-62
2022/09/30 03:45:37;;;;;;;1.77;1.30;;;17.20;99.90;;;;;;5073917;28;20099;-60
2022/09/30 03:48:07;;;;;;;2.60;2.10;;;17.20;99.90;;;;;;5073864;28;20020;-60
2022/09/30 03:50:35;;;;;;;2.13;1.27;;;17.00;99.90;;;;;;5073749;28;20493;-60
2022/09/30 03:53:02;;;;;;;1.40;1.20;;;17.00;99.90;;;;;;5073727;28;20025;-61
2022/09/30 03:55:28;;;;;;;1.98;1.13;;;16.80;99.90;;;;;;5074001;28;20020;-62
2022/09/30 03:57:54;;;;;;;2.17;1.65;;;16.70;99.90;;;;;;5073756;28;20530;-62
2022/09/30 04:00:19;;;;;;;1.75;1.00;;;16.70;99.90;;;;;;5073744;28;20101;-62
2022/09/30 04:02:45;;;;;;;2.25;1.20;;;16.70;99.90;;;;;;5073619;28;20032;-60
2022/09/30 04:05:11;;;;;;;2.17;1.08;;;16.70;99.90;;;;;;5073199;28;20466;-61
2022/09/30 04:07:37;;;;;;;3.15;1.35;;;16.70;99.90;;;;;;5073398;28;20081;-61
2022/09/30 04:10:04;;;;;;;1.17;1.08;;;16.70;99.90;;;;;;5073508;28;20120;-60
2022/09/30 04:12:30;;;;;;;1.80;0.93;;;16.60;99.90;;;;;;5073898;28;20110;-62
2022/09/30 04:14:55;;;;;;;0.52;0.52;;;16.50;99.90;;;;;;5073456;28;20459;-62
2022/09/30 04:17:21;;;;;;;0.98;0.75;;;16.60;99.90;;;;;;5073638;28;20130;-63
2022/09/30 04:19:47;;;;;;;0.85;0.75;;;16.60;99.90;;;;;;5073446;28;20091;-61
2022/09/30 04:22:13;;;;;;;2.40;0.68;;;16.70;99.90;;;;;;5073242;28;20028;-60
2022/09/30 04:24:39;;;;;;;0.70;0.60;;;16.80;99.90;;;;;;5073461;28;20024;-61
2022/09/30 04:27:04;;;;;;;0.45;0.45;;;16.80;99.90;;;;;;5073603;28;20371;-62
2022/09/30 04:29:30;;;;;;;1.20;0.50;;;16.90;99.90;;;;;;5073263;28;20153;-60
2022/09/30 04:31:56;;;;;;;4.55;2.30;;;16.90;99.90;;;;;;5073289;28;20039;-60
2022/09/30 04:34:22;;;;;;;2.80;2.53;;;16.80;99.90;;;;;;5073192;28;20020;-60
2022/09/30 04:36:47;;;;;;;2.60;2.40;;;16.80;99.90;;;;;;5073351;28;20020;-62
2022/09/30 04:39:13;;;;;;;3.40;1.90;;;16.60;99.90;;;;;;5073148;28;20020;-63
2022/09/30 04:41:39;;;;;;;1.75;1.40;;;16.50;99.90;;;;;;5073374;28;20033;-62
2022/09/30 04:44:05;;;;;;;1.20;1.10;;;16.60;99.90;;;;;;5073332;28;20025;-62
2022/09/30 04:46:33;;;;;;;1.90;1.70;;;16.60;99.90;;;;;;5073109;28;20021;-60
2022/09/30 04:48:59;;;;;;;2.50;1.70;;;16.70;99.90;;;;;;5073016;28;20027;-60
2022/09/30 04:51:26;;;;;;;6.95;6.28;;;16.60;99.90;;;;;;5073177;28;20087;-60
2022/09/30 04:53:51;;;;;;;2.60;2.10;;;16.60;99.90;;;;;;5078767;28;20597;-60
2022/09/30 04:56:18;;;;;;;1.60;1.50;;;16.60;99.90;;;;;;5080293;28;20074;-60
2022/09/30 04:58:44;;;;;;;3.30;1.45;;;16.50;99.90;;;;;;5081847;28;20067;-60
2022/09/30 05:01:12;;;;;;;0.98;0.85;;;16.50;99.90;;;;;;5089312;28;20047;-60
2022/09/30 05:03:39;;;;;;;1.50;1.40;;;16.50;99.90;;;;;;5082885;28;20487;-61
2022/09/30 05:06:05;;;;;;;2.67;1.30;;;16.40;99.90;;;;;;5091623;28;20112;-61
2022/09/30 05:08:34;;;;;;;1.05;0.90;;;16.40;99.90;;;;;;5082485;28;20351;-61
2022/09/30 05:11:08;;;;;;;1.13;1.02;;;16.40;99.90;;;;;;5088287;28;20059;-60
2022/09/30 05:13:34;;;;;;;;;;;16.50;99.90;;;;;;5087700;28;20064;-61
2022/09/30 05:16:01;;;;;;;2.20;1.33;;;16.40;99.90;;;;;;5087837;28;19923;-61
2022/09/30 05:18:27;;;;;;;1.90;0.90;;;16.40;99.90;;;;;;5083276;28;20055;-61
2022/09/30 05:20:56;;;;;;;2.60;1.85;;;16.40;99.90;;;;;;5096862;28;20216;-60
2022/09/30 05:23:22;;;;;;;2.97;1.85;;;16.30;99.90;;;;;;5096987;28;20024;-60
2022/09/30 05:25:49;;;;;;;1.70;1.23;;;16.20;99.90;;;;;;5096637;28;20024;-61
2022/09/30 05:28:15;;;;;;;1.23;1.10;;;16.20;99.90;;;;;;5096287;28;20020;-61
2022/09/30 05:30:42;;;;;;;2.50;1.30;;;16.30;99.90;;;;;;5095271;28;20028;-61
2022/09/30 05:33:08;;;;;;;2.15;1.13;;;16.40;99.90;;;;;;5089584;28;20079;-61
2022/09/30 05:35:34;;;;;;;2.17;1.27;;;16.50;99.90;;;;;;5091959;28;20047;-60
2022/09/30 05:38:02;;;;;;;1.17;1.08;;;16.50;99.90;;;;;;5094110;28;20364;-60
2022/09/30 05:40:27;;;;;;;1.40;1.30;;;16.70;99.90;;;;;;5094395;28;20031;-60
2022/09/30 05:42:55;;;;;;;1.25;1.15;;;16.70;99.90;;;;;;5094360;28;20024;-61
2022/09/30 05:45:21;;;;;;;2.00;1.73;;;16.80;99.90;;;;;;5087021;28;20021;-60
2022/09/30 05:47:51;;;;;;;1.58;1.30;;;16.80;99.90;;;;;;5088672;28;20022;-61
2022/09/30 05:50:18;;;;;;;2.05;1.27;;;16.80;99.90;;;;;;5092691;28;20061;-61
2022/09/30 05:52:43;;;;;;;1.23;1.00;;;16.80;99.90;;;;;;5092475;28;20032;-61
2022/09/30 05:55:10;;;;;;;2.00;1.85;;;16.90;99.90;;;;;;5092849;28;20016;-61
2022/09/30 05:57:35;;;;;;;2.67;2.22;;;17.00;99.90;;;;;;5092802;28;20028;-60
2022/09/30 06:00:02;;;;;;;2.30;1.63;;;16.90;99.90;;;;;;5092222;28;20286;-60
2022/09/30 06:02:28;;;;;;;4.88;3.58;;;17.00;99.90;;;;;;5080692;28;20060;-60
2022/09/30 06:04:53;;;;;;;3.85;3.53;;;17.00;99.90;;;;;;5095977;28;20512;-61
2022/09/30 06:07:19;;;;;;;3.40;2.92;;;17.10;99.90;;;;;;5095129;28;20016;-60
2022/09/30 06:09:45;;;;;;;3.90;2.92;;;17.20;99.90;;;;;;5089487;28;20568;-62
2022/09/30 06:12:11;;;;;;;3.10;2.63;;;17.30;99.90;;;;;;5080256;28;20530;-62
2022/09/30 06:14:37;;;;;;;3.85;3.22;;;17.40;99.90;;;;;;5083708;28;20035;-60
2022/09/30 06:17:04;;;;;;;2.95;2.40;;;19.20;99.90;;;;;;5082354;28;20032;-61
2022/09/30 06:19:29;;;;;;;2.65;2.45;;;21.10;99.90;;;;;;5086151;28;20311;-61
2022/09/30 06:21:56;;;;;;;2.25;2.10;;;22.60;99.90;;;;;;5091375;28;20074;-61
2022/09/30 06:24:22;;;;;;;3.15;2.67;;;23.60;99.90;;;;;;5087239;28;20454;-61
2022/09/30 06:26:48;;;;;;;2.13;1.80;;;25.10;96.90;;;;;;5080958;28;20043;-61
2022/09/30 06:29:13;;;;;;;2.15;1.85;;;26.60;85.90;;;;;;5085563;28;20439;-61
2022/09/30 06:31:40;;;;;;;4.13;2.30;;;27.00;78.00;;;;;;5091896;28;20040;-61
2022/09/30 06:34:06;;;;;;;2.00;1.90;;;27.30;72.80;;;;;;5093413;28;20231;-61
2022/09/30 06:36:33;;;;;;;2.30;2.10;;;27.50;71.90;;;;;;5094319;28;20055;-61
2022/09/30 06:39:03;;;;;;;1.60;1.50;;;28.00;70.40;;;;;;5090638;28;20047;-61
2022/09/30 06:41:29;;;;;;;2.03;1.60;;;28.90;67.70;;;;;;5079549;28;20490;-61
2022/09/30 06:43:55;;;;;;;2.15;1.55;;;29.70;63.70;;;;;;5090277;28;20044;-60
2022/09/30 06:46:22;;;;;;;1.30;0.90;;;30.00;62.60;;;;;;5092647;28;20099;-61
2022/09/30 06:48:57;;;;;;;1.27;0.80;;;30.20;58.40;;;;;;5090975;28;20016;-61
2022/09/30 06:51:25;;;;;;;0.70;0.70;;;30.00;59.60;;;;;;5091043;28;20039;-62
2022/09/30 06:53:52;;;;;;;1.13;0.80;;;30.70;59.10;;;;;;5090902;28;20024;-61
2022/09/30 06:56:27;;;;;;;0.60;0.60;;;31.70;57.60;;;;;;5088444;28;20036;-64
2022/09/30 06:59:09;;;;;;;0.75;0.65;;;32.80;54.20;;;;;;5084211;28;20024;-62
2022/09/30 07:01:37;;;;;;;0.70;0.70;;;33.40;53.30;;;;;;5084161;28;20039;-61
2022/09/30 07:04:08;;;;;;;0.80;0.60;;;33.20;50.60;;;;;;5077857;28;20020;-61
2022/09/30 07:06:34;;;;;;;0.68;0.65;;;31.70;52.10;;;;;;5078534;28;20103;-60
2022/09/30 07:08:59;;;;;;;0.80;0.70;;;30.20;54.20;;;;;;5079398;28;20147;-61
2022/09/30 07:11:25;;;;;;;0.63;0.50;;;29.70;55.70;;;;;;5083008;28;20086;-61
2022/09/30 07:13:51;;;;;;;1.08;0.65;;;29.90;55.40;;;;;;5080130;28;20043;-62
2022/09/30 07:16:18;;;;;;;0.70;0.70;;;31.00;56.00;;;;;;5090241;28;20433;-62
2022/09/30 07:18:44;;;;;;;0.65;0.60;;;32.20;54.30;;;;;;5088124;28;20063;-60
2022/09/30 07:21:14;;;;;;;0.45;0.45;;;33.50;52.30;;;;;;5086884;28;20036;-64
2022/09/30 07:23:46;;;;;;;0.63;0.50;;;34.50;51.00;;;;;;5086152;28;20032;-62
2022/09/30 07:26:16;;;;;;;0.70;0.60;;;35.00;48.90;;;;;;5083544;28;20021;-61
2022/09/30 07:28:43;;;;;;;0.40;0.40;;;34.40;48.50;;;;;;5081967;28;20024;-61
2022/09/30 07:31:24;;;;;;;0.57;0.40;;;33.50;48.90;;;;;;5087457;28;20048;-63
2022/09/30 07:33:50;;;;;;;2.40;0.70;;;32.50;51.00;;;;;;5089869;28;20495;-61
2022/09/30 07:36:25;;;;;;;0.82;0.70;;;31.90;50.80;;;;;;5090347;28;20028;-63
2022/09/30 07:38:52;;;;;;;0.50;0.50;;;31.10;51.70;;;;;;5085718;28;20390;-66
2022/09/30 07:41:21;;;;;;;0.98;0.68;;;30.80;53.30;;;;;;5076061;28;20093;-63
2022/09/30 07:43:47;;;;;;;1.17;0.82;;;30.60;53.70;;;;;;5081538;28;20478;-61
2022/09/30 07:46:19;;;;;;;0.90;0.80;;;29.80;53.50;;;;;;5083990;28;20058;-63
2022/09/30 07:48:50;;;;;;;0.82;0.60;;;28.60;55.50;;;;;;5096158;28;20064;-64
2022/09/30 07:51:18;;;;;;;0.65;0.60;;;27.90;58.30;;;;;;5079533;28;20089;-64
2022/09/30 07:53:47;;;;;;;1.60;0.60;;;27.60;59.50;;;;;;5083712;28;20024;-61
2022/09/30 07:56:13;;;;;;;0.50;0.50;;;27.40;59.20;;;;;;5084782;28;20074;-62
2022/09/30 07:58:41;;;;;;;1.33;0.52;;;27.20;60.80;;;;;;5074518;28;20058;-60
2022/09/30 08:01:07;;;;;;;0.82;0.70;;;27.30;60.40;;;;;;5078483;28;20032;-62
2022/09/30 08:03:37;;;;;;;0.50;0.50;;;27.10;60.80;;;;;;5089189;28;20059;-62
2022/09/30 08:06:12;;;;;;;0.73;0.65;;;26.90;62.70;;;;;;5085989;28;20020;-60
2022/09/30 08:08:38;;;;;;;0.90;0.50;;;26.80;62.50;;;;;;5089536;28;20096;-60
2022/09/30 08:11:05;;;;;;;0.90;0.60;;;26.70;61.90;;;;;;5091935;28;20482;-61
2022/09/30 08:13:31;;;;;;;0.47;0.47;;;26.50;62.70;;;;;;5082029;28;20021;-61
2022/09/30 08:15:57;;;;;;;1.55;0.73;;;26.40;63.30;;;;;;5072613;28;20025;-62
2022/09/30 08:18:22;;;;;;;1.23;0.57;;;26.10;63.50;;;;;;5076370;28;20105;-60
2022/09/30 08:20:48;;;;;;;1.35;0.63;;;25.60;64.70;;;;;;5089897;28;20024;-61
2022/09/30 08:23:14;;;;;;;2.00;0.70;;;25.40;66.80;;;;;;5082724;28;20036;-61
2022/09/30 08:25:40;;;;;;;0.82;0.55;;;26.00;73.90;;;;;;5083132;28;20028;-62
2022/09/30 08:28:09;;;;;;;1.63;0.70;;;27.60;65.90;;;;;;5089779;28;20032;-61
2022/09/30 08:30:36;;;;;;;0.70;0.60;;;29.20;61.30;;;;;;5083212;28;20020;-62
2022/09/30 08:33:01;;;;;;;3.13;0.82;;;29.80;59.00;;;;;;5089933;28;20115;-61
2022/09/30 08:35:35;;;;;;;1.08;0.70;;;29.60;59.10;;;;;;5090494;28;20459;-61
2022/09/30 08:38:01;;;;;;;0.90;0.60;;;28.60;58.70;;;;;;5082458;28;20457;-60
2022/09/30 08:40:31;;;;;;;1.05;0.63;;;27.80;61.50;;;;;;5090840;28;20220;-61
2022/09/30 08:43:36;;;;;;;0.70;0.50;;;27.10;61.70;;;;;;5088053;28;20402;-61
2022/09/30 08:46:41;;;;;;;0.60;0.60;;;26.30;63.70;;;;;;5083566;28;20043;-60
2022/09/30 08:49:27;;;;;;;0.70;0.60;;;26.30;66.80;;;;;;5081794;28;20060;-61
2022/09/30 08:51:55;;;;;;;1.00;0.90;;;26.50;65.70;;;;;;5090661;28;20402;-62
2022/09/30 08:54:25;;;;;;;0.85;0.70;;;26.10;67.10;;;;;;5090824;28;20020;-63
2022/09/30 08:56:51;;;;;;;1.90;0.77;;;25.80;68.60;;;;;;5092202;28;20028;-64
2022/09/30 08:59:45;;;;;;;1.83;0.68;;;25.50;73.10;;;;;;5093145;28;20103;-63
2022/09/30 09:02:28;;;;;;;0.75;0.70;;;25.30;74.30;;;;;;5090111;28;20012;-61
2022/09/30 09:05:00;;;;;;;1.00;0.90;;;25.00;77.30;;;;;;5086026;28;20493;-63
2022/09/30 09:07:33;;;;;;;0.85;0.82;;;24.90;81.60;;;;;;5078440;28;20490;-62
2022/09/30 09:10:09;;;;;;;;;;;24.90;90.20;;;;;;5084423;28;20044;-64
2022/09/30 09:13:12;;;;;;;0.90;0.80;;;24.90;85.90;;;;;;5081526;28;19927;-64
2022/09/30 09:15:40;;;;;;;1.05;0.82;;;24.70;88.60;;;;;;5074051;28;20035;-62
2022/09/30 09:18:44;;;;;;;2.10;1.00;;;24.60;91.10;;;;;;5079269;28;20032;-62
2022/09/30 09:21:15;;;;;;;1.48;1.08;;;24.60;90.20;;;;;;5086403;28;20047;-62
2022/09/30 09:23:41;;;;;;;1.05;0.73;;;24.50;93.40;;;;;;5081237;28;20478;-66
2022/09/30 09:26:11;;;;;;;2.40;1.08;;;24.60;94.30;;;;;;5094542;28;20021;-66
2022/09/30 09:28:57;;;;;;;1.73;1.17;;;24.80;97.70;;;;;;5093005;28;20027;-62
2022/09/30 09:31:25;;;;;;;2.20;1.17;;;25.30;93.40;;;;;;5079033;28;20040;-64
2022/09/30 09:33:51;;;;;;;1.20;1.10;;;25.90;90.90;;;;;;5082339;28;20517;-62
2022/09/30 09:36:20;;;;;;;1.02;0.93;;;26.30;94.60;;;;;;5084181;28;20385;-62
2022/09/30 09:39:11;;;;;;;1.52;1.05;;;26.80;88.80;;;;;;5081198;28;20058;-64
2022/09/30 09:42:00;;;;;;;0.90;0.70;;;27.50;82.10;;;;;;5082908;28;20036;-62
2022/09/30 09:44:35;;;;;;;1.42;0.60;;;27.90;72.00;;;;;;5083318;28;20588;-61
2022/09/30 09:47:12;;;;;;;0.60;0.60;;;28.40;68.30;;;;;;5087949;28;20035;-61
2022/09/30 09:49:43;;;;;;;2.08;0.65;;;28.70;64.60;;;;;;5093349;28;20035;-62
2022/09/30 09:52:12;;;;;;;0.90;0.50;;;29.00;59.20;;;;;;5090122;28;20367;-61
2022/09/30 09:54:44;;;;;;;1.58;0.60;;;28.90;58.40;;;;;;5090317;28;20052;-62
2022/09/30 09:57:17;;;;;;;0.85;0.40;;;28.90;59.50;;;;;;5082960;28;20032;-62
2022/09/30 10:03:07;;;;;;;0.80;0.52;;;28.90;58.90;;;;;;5089839;28;20046;-63
2022/09/30 10:05:41;;;;;;;1.33;0.50;;;29.40;59.00;;;;;;5089980;28;20032;-61
2022/09/30 10:08:16;;;;;;;0.93;0.43;;;29.80;56.80;;;;;;5094042;28;20508;-62
2022/09/30 10:10:47;;;;;;;1.25;0.55;;;30.10;53.50;;;;;;5091968;28;20040;-62
2022/09/30 10:13:29;;;;;;;0.43;0.40;;;30.20;55.40;;;;;;5078569;28;20040;-63
2022/09/30 10:16:00;;;;;;;0.70;0.50;;;30.40;54.70;;;;;;5077661;28;20012;-63
2022/09/30 10:18:35;;;;;;;0.85;0.30;;;30.30;55.40;;;;;;5085085;28;20028;-64
2022/09/30 10:21:22;;;;;;;1.33;0.40;;;30.10;55.80;;;;;;5086824;28;20043;-63
2022/09/30 10:23:48;;;;;;;0.47;0.30;;;29.90;54.00;;;;;;5090349;28;20042;-62
2022/09/30 10:26:14;;;;;;;0.75;0.38;;;29.90;57.30;;;;;;5091436;28;20099;-62
2022/09/30 10:28:45;;;;;;;0.38;0.28;;;30.00;53.90;;;;;;5085435;28;20029;-62
2022/09/30 10:31:22;;;;;;;1.80;0.70;;;29.90;58.10;;;;;;5078386;28;20102;-62
2022/09/30 10:34:11;;;;;;;1.05;0.40;;;29.60;53.40;;;;;;5075847;28;20482;-62
2022/09/30 10:36:40;;;;;;;0.47;0.40;;;29.30;53.80;;;;;;5070508;28;20033;-64
2022/09/30 10:39:16;;;;;;;0.90;0.50;;;29.10;59.50;;;;;;5083590;28;20032;-64
2022/09/30 10:41:41;;;;;;;5.10;0.60;;;29.10;57.60;;;;;;5088979;28;20028;-61
2022/09/30 10:44:24;;;;;;;1.25;0.90;;;29.10;60.20;;;;;;5081417;28;20074;-68
2022/09/30 10:46:54;;;;;;;1.70;1.02;;;28.40;62.70;;;;;;5077331;28;20032;-65
2022/09/30 10:49:57;;;;;;;1.30;0.90;;;28.00;65.90;;;;;;5078593;28;20030;-66
2022/09/30 10:52:27;;;;;;;1.65;0.90;;;27.60;69.30;;;;;;5091581;28;20140;-62
2022/09/30 10:54:56;;;;;;;1.92;0.98;;;27.00;73.80;;;;;;5092945;28;20089;-63
2022/09/30 10:57:25;;;;;;;1.40;0.75;;;26.50;79.60;;;;;;5091756;28;20049;-62
2022/09/30 10:59:59;;;;;;;1.27;0.70;;;26.30;87.40;;;;;;5089609;28;20023;-62
2022/09/30 11:02:49;;;;;;;2.28;0.82;;;26.30;90.90;;;;;;5072308;28;20028;-62
2022/09/30 11:05:35;;;;;;;1.27;0.70;;;26.20;92.50;;;;;;5089253;28;20028;-60
2022/09/30 11:08:21;;;;;;;1.55;0.70;;;26.00;93.70;;;;;;5082880;28;20012;-62
2022/09/30 11:11:26;;;;;;;1.05;0.60;;;26.10;92.50;;;;;;5086355;28;20409;-64
2022/09/30 11:13:57;;;;;;;1.75;0.80;;;26.30;93.00;;;;;;5076638;28;20080;-61
2022/09/30 11:17:02;;;;;;;0.80;0.68;;;26.40;93.60;;;;;;5081190;28;20086;-62
2022/09/30 11:19:43;;;;;;;0.85;0.60;;;26.20;94.80;;;;;;5069333;28;20559;-64
2022/09/30 11:22:48;;;;;;;1.25;0.70;;;26.10;93.20;;;;;;5077011;28;20028;-61
2022/09/30 11:25:26;;;;;;;1.02;0.75;;;26.50;91.20;;;;;;5073460;28;20487;-63
2022/09/30 11:27:58;;;;;;;1.27;0.70;;;26.50;89.00;;;;;;5086250;28;20028;-61
2022/09/30 11:30:45;;;;;;;4.10;0.95;;;26.60;90.30;;;;;;5089994;28;20054;-62
2022/09/30 11:33:32;;;;;;;1.40;0.70;;;26.60;90.50;;;;;;5089580;28;20035;-61
2022/09/30 11:36:33;;;;;;;2.10;0.80;;;26.20;91.10;;;;;;5089107;28;20035;-61
2022/09/30 11:38:59;;;;;;;4.65;1.05;;;25.90;95.20;;;;;;5086992;28;20043;-61
2022/09/30 11:41:39;;;;;;;2.95;0.70;;;25.70;97.40;;;;;;5087635;28;20009;-61
2022/09/30 11:44:29;;;;;;;2.22;0.80;;;25.40;98.70;;;;;;5085060;28;20024;-61
2022/09/30 11:47:26;;;;;;;2.30;0.75;;;25.20;98.20;;;;;;5088424;28;20020;-62
2022/09/30 11:50:24;;;;;;;1.10;0.80;;;24.90;99.20;;;;;;5086426;28;20032;-62
2022/09/30 11:53:14;;;;;;;2.28;0.70;;;24.70;99.50;;;;;;5082681;28;20114;-62
2022/09/30 11:55:47;;;;;;;1.20;0.70;;;24.70;99.90;;;;;;5082661;28;20024;-60
2022/09/30 11:58:27;;;;;;;1.60;0.70;;;24.60;99.90;;;;;;5087435;28;20097;-62
2022/09/30 12:01:38;;;;;;;1.88;0.70;;;24.80;99.90;;;;;;5092321;28;20415;-62
2022/09/30 12:04:06;;;;;;;2.33;0.80;;;25.00;99.90;;;;;;5088730;28;20027;-61
2022/09/30 12:06:38;;;;;;;0.85;0.55;;;25.40;97.40;;;;;;5087326;28;20039;-64
2022/09/30 12:09:22;;;;;;;1.13;0.73;;;25.80;88.20;;;;;;5087716;28;20046;-61
2022/09/30 12:12:09;;;;;;;1.52;0.73;;;25.90;93.90;;;;;;5089453;28;20119;-63
2022/09/30 12:14:45;;;;;;;2.58;0.63;;;26.10;91.50;;;;;;5078506;28;20609;-62
2022/09/30 12:17:31;;;;;;;0.73;0.50;;;26.60;83.20;;;;;;5069159;28;20518;-62
2022/09/30 12:20:04;;;;;;;1.02;0.50;;;27.20;83.00;;;;;;5066673;28;20024;-57
2022/09/30 12:22:38;;;;;;;0.63;0.50;;;27.40;62.00;;;;;;5068200;28;20012;-59
2022/09/30 12:25:15;;;;;;;1.08;0.40;;;27.70;59.30;;;;;;5067324;28;20051;-59
2022/09/30 12:31:39;;;;;;;1.52;1.13;;;28.00;68.00;;;;;;5088151;28;20031;-61
2022/09/30 12:34:38;;;;;;;1.33;0.70;;;27.90;74.20;;;;;;5089498;28;20099;-61
2022/09/30 12:37:25;;;;;;;4.05;0.70;;;27.50;74.50;;;;;;5090680;28;20103;-61
2022/09/30 12:39:58;;;;;;;0.93;0.63;;;27.10;78.40;;;;;;5091645;28;20032;-61
2022/09/30 12:42:51;;;;;;;1.67;0.80;;;27.00;86.40;;;;;;5090304;28;20024;-59
2022/09/30 12:45:23;;;;;;;0.82;0.70;;;26.80;90.50;;;;;;5090548;28;20031;-59
2022/09/30 12:48:02;;;;;;;2.50;1.10;;;26.90;81.40;;;;;;5091048;28;20024;-60
2022/09/30 12:50:34;;;;;;;3.97;1.20;;;26.90;86.00;;;;;;5090412;28;20073;-62
2022/09/30 12:53:17;;;;;;;0.88;0.60;;;26.50;80.90;;;;;;5091790;28;20036;-60
2022/09/30 12:55:43;;;;;;;1.00;0.55;;;26.70;69.20;;;;;;5090490;28;20417;-62
2022/09/30 12:58:29;;;;;;;1.55;0.60;;;26.90;60.80;;;;;;5088707;28;20028;-61
2022/09/30 13:01:37;;;;;;;0.55;0.40;;;27.20;62.00;;;;;;5093521;28;20164;-62
2022/09/30 13:04:03;;;;;;;0.77;0.65;;;27.40;59.50;;;;;;5090882;28;20020;-61
2022/09/30 13:06:46;;;;;;;0.65;0.55;;;27.30;57.20;;;;;;5090232;28;20189;-62
2022/09/30 13:09:15;;;;;;;1.55;0.47;;;27.40;64.90;;;;;;5091855;28;20139;-60
2022/09/30 13:11:52;;;;;;;1.00;0.60;;;27.50;68.80;;;;;;5092865;28;20386;-62
2022/09/30 13:14:29;;;;;;;1.00;0.63;;;27.30;58.80;;;;;;5093023;28;20035;-60
2022/09/30 13:17:00;;;;;;;0.68;0.40;;;27.40;63.70;;;;;;5093190;28;20020;-60
2022/09/30 13:19:39;;;;;;;0.98;0.50;;;27.40;63.90;;;;;;5091135;28;20020;-61
2022/09/30 13:22:20;;;;;;;2.90;0.70;;;27.10;66.50;;;;;;5091024;28;20032;-62
2022/09/30 13:27:45;;;;;;;2.33;0.70;;;26.80;71.20;;;;;;5092124;28;20470;-61
2022/09/30 13:30:16;;;;;;;1.40;0.52;;;26.90;65.70;;;;;;5091928;28;20428;-59
2022/09/30 13:32:46;;;;;;;1.70;0.70;;;27.00;68.30;;;;;;5091814;28;20036;-62